Time;durP1;ratioP1;P1;durP2;ratioP2;P2;SDS_P1;SDS_P2;PMS_P1;PMS_P2;Temp;Humidity;BMP_temperature;BMP_pressure;BME280_temperature;BME280_humidity;BME280_pressure;Samples;Min_cycle;Max_cycle;Signal;HPM_P1;HPM_P2
2023/04/13 00:00:46;;;;;;;1.02;1.02;;;8.70;99.90;;;;;;5033494;28;20187;-74
2023/04/13 00:03:15;;;;;;;0.63;0.63;;;8.70;99.90;;;;;;5047956;28;20184;-74
2023/04/13 00:05:42;;;;;;;0.70;0.70;;;8.70;99.90;;;;;;5045125;28;20245;-74
2023/04/13 00:08:08;;;;;;;1.48;0.98;;;8.70;99.90;;;;;;5047209;28;20210;-74
2023/04/13 00:10:35;;;;;;;1.73;1.10;;;8.70;99.90;;;;;;5048527;28;20176;-75
2023/04/13 00:13:04;;;;;;;0.85;0.80;;;8.70;99.90;;;;;;5047167;28;20203;-74
2023/04/13 00:15:30;;;;;;;4.97;1.00;;;8.70;99.90;;;;;;5043410;28;20203;-74
2023/04/13 00:17:56;;;;;;;0.60;0.60;;;8.60;99.90;;;;;;5044587;28;20212;-74
2023/04/13 00:20:22;;;;;;;0.95;0.77;;;8.70;99.90;;;;;;5047355;28;20184;-74
2023/04/13 00:22:48;;;;;;;0.65;0.65;;;8.70;99.90;;;;;;5050103;28;20186;-74
2023/04/13 00:25:14;;;;;;;1.92;0.65;;;8.60;99.90;;;;;;5050267;28;20206;-74
2023/04/13 00:27:42;;;;;;;1.30;1.13;;;8.70;99.90;;;;;;5045965;28;20223;-74
2023/04/13 00:30:09;;;;;;;0.80;0.80;;;8.60;99.90;;;;;;5049579;28;20709;-74
2023/04/13 00:32:37;;;;;;;1.05;0.45;;;8.50;99.90;;;;;;5045109;28;20212;-74
2023/04/13 00:35:03;;;;;;;0.43;0.43;;;8.20;99.90;;;;;;5040834;28;20621;-74
2023/04/13 00:37:29;;;;;;;0.70;0.70;;;7.90;99.90;;;;;;5043683;28;20294;-74
2023/04/13 00:39:55;;;;;;;0.68;0.40;;;7.60;99.90;;;;;;5041770;28;20171;-74
2023/04/13 00:42:21;;;;;;;0.50;0.50;;;7.40;99.90;;;;;;5041377;28;20605;-74
2023/04/13 00:44:46;;;;;;;0.40;0.40;;;7.20;99.90;;;;;;5044475;28;20222;-74
2023/04/13 00:47:16;;;;;;;0.50;0.50;;;7.10;99.90;;;;;;5052976;28;20199;-74
2023/04/13 00:49:42;;;;;;;0.90;0.90;;;6.90;99.90;;;;;;5048914;28;20259;-74
2023/04/13 00:52:10;;;;;;;0.63;0.63;;;6.80;99.90;;;;;;5046915;28;20322;-74
2023/04/13 00:54:37;;;;;;;0.60;0.60;;;6.70;99.90;;;;;;5048937;28;20337;-74
2023/04/13 00:57:04;;;;;;;0.57;0.57;;;6.60;99.90;;;;;;5047378;28;20173;-74
2023/04/13 00:59:30;;;;;;;1.23;0.60;;;6.60;99.90;;;;;;5040481;28;20187;-74
2023/04/13 01:01:55;;;;;;;0.73;0.73;;;6.60;99.90;;;;;;5047179;28;20183;-74
2023/04/13 01:04:23;;;;;;;0.50;0.50;;;6.60;99.90;;;;;;5045951;28;20192;-74
2023/04/13 01:07:18;;;;;;;0.65;0.65;;;6.60;99.90;;;;;;5042392;28;20179;-75
2023/04/13 01:10:09;;;;;;;1.08;0.65;;;6.60;99.90;;;;;;5038884;28;20184;-75
2023/04/13 01:12:47;;;;;;;0.60;0.60;;;6.60;99.90;;;;;;5043841;28;20196;-74
2023/04/13 01:15:15;;;;;;;0.85;0.63;;;6.70;99.90;;;;;;5050566;28;20770;-75
2023/04/13 01:17:50;;;;;;;1.50;0.80;;;6.70;99.90;;;;;;5046481;28;20185;-75
2023/04/13 01:20:19;;;;;;;0.82;0.70;;;6.70;99.90;;;;;;5047049;28;20213;-75
2023/04/13 01:22:54;;;;;;;0.98;0.65;;;6.80;99.90;;;;;;5037628;28;20528;-74
2023/04/13 01:25:30;;;;;;;0.52;0.52;;;6.80;99.90;;;;;;5041434;28;20210;-75
2023/04/13 01:28:10;;;;;;;1.73;0.70;;;6.90;99.90;;;;;;5043890;28;20548;-74
2023/04/13 01:30:37;;;;;;;1.35;0.50;;;7.00;99.90;;;;;;5023599;28;20184;-74
2023/04/13 01:33:04;;;;;;;0.73;0.47;;;7.10;99.90;;;;;;5042197;28;20225;-74
2023/04/13 01:35:30;;;;;;;0.38;0.38;;;7.20;99.90;;;;;;5032382;28;20217;-74
2023/04/13 01:37:56;;;;;;;0.90;0.63;;;7.20;99.90;;;;;;5052778;28;20188;-74
2023/04/13 01:40:24;;;;;;;0.40;0.40;;;7.20;99.90;;;;;;5049220;28;20183;-75
2023/04/13 01:42:51;;;;;;;0.70;0.70;;;7.30;99.90;;;;;;5044558;28;20187;-75
2023/04/13 01:45:17;;;;;;;0.45;0.45;;;7.30;99.90;;;;;;5042334;28;20223;-75
2023/04/13 01:47:54;;;;;;;0.55;0.55;;;7.30;99.90;;;;;;5041306;28;20188;-75
2023/04/13 01:50:32;;;;;;;0.45;0.45;;;7.20;99.90;;;;;;5043334;28;20285;-75
2023/04/13 01:53:06;;;;;;;0.50;0.50;;;7.20;99.90;;;;;;5050043;28;20211;-75
2023/04/13 01:55:36;;;;;;;2.20;0.55;;;7.30;99.90;;;;;;5047918;28;20562;-75
2023/04/13 01:58:03;;;;;;;0.50;0.50;;;7.30;99.90;;;;;;5049769;28;20272;-75
2023/04/13 02:00:35;;;;;;;0.40;0.40;;;7.20;99.90;;;;;;5046100;28;21145;-75
2023/04/13 02:03:06;;;;;;;0.75;0.70;;;7.20;99.90;;;;;;5050018;28;20179;-75
2023/04/13 02:05:34;;;;;;;0.65;0.65;;;7.20;99.90;;;;;;5048525;28;20223;-75
2023/04/13 02:08:02;;;;;;;0.98;0.52;;;7.20;99.90;;;;;;5041888;28;20283;-75
2023/04/13 02:10:28;;;;;;;0.47;0.47;;;7.20;99.90;;;;;;5050534;28;20551;-75
2023/04/13 02:12:54;;;;;;;0.55;0.40;;;7.10;99.90;;;;;;5054007;28;20284;-74
2023/04/13 02:15:20;;;;;;;0.50;0.50;;;7.10;99.90;;;;;;5048096;28;20203;-75
2023/04/13 02:17:45;;;;;;;0.38;0.38;;;7.10;99.90;;;;;;5045999;28;20371;-75
2023/04/13 02:20:11;;;;;;;2.05;0.80;;;7.10;99.90;;;;;;5047417;28;20674;-75
2023/04/13 02:22:40;;;;;;;0.60;0.60;;;7.10;99.90;;;;;;5048444;28;20199;-75
2023/04/13 02:25:07;;;;;;;0.75;0.55;;;7.10;99.90;;;;;;5029532;28;20284;-75
2023/04/13 02:27:35;;;;;;;0.32;0.32;;;7.10;99.90;;;;;;5058673;28;20225;-75
2023/04/13 02:30:01;;;;;;;0.60;0.60;;;7.10;99.90;;;;;;5046584;28;20180;-75
2023/04/13 02:32:28;;;;;;;0.43;0.43;;;7.10;99.90;;;;;;5036981;28;21256;-75
2023/04/13 02:34:54;;;;;;;0.50;0.50;;;7.10;99.90;;;;;;5051374;28;20203;-75
2023/04/13 02:37:19;;;;;;;1.55;0.52;;;7.10;99.90;;;;;;5045966;28;20184;-75
2023/04/13 02:39:45;;;;;;;0.30;0.30;;;7.10;99.90;;;;;;5048349;28;20658;-75
2023/04/13 02:42:11;;;;;;;0.20;0.20;;;7.20;99.90;;;;;;5046502;28;20255;-75
2023/04/13 02:44:37;;;;;;;0.60;0.60;;;7.10;99.90;;;;;;5048306;28;20729;-75
2023/04/13 02:47:03;;;;;;;0.40;0.40;;;7.10;99.90;;;;;;5050491;28;20586;-75
2023/04/13 02:49:29;;;;;;;0.63;0.52;;;7.10;99.90;;;;;;5044645;28;20186;-75
2023/04/13 02:51:54;;;;;;;1.05;0.90;;;7.10;99.90;;;;;;5031148;28;20748;-75
2023/04/13 02:54:20;;;;;;;0.50;0.50;;;7.10;99.90;;;;;;5049512;28;20201;-75
2023/04/13 02:56:46;;;;;;;0.60;0.60;;;7.10;99.90;;;;;;5049807;28;20180;-75
2023/04/13 02:59:12;;;;;;;1.95;1.00;;;7.10;99.90;;;;;;5050676;28;20169;-75
2023/04/13 03:01:38;;;;;;;0.93;0.93;;;7.00;99.90;;;;;;5049218;28;20180;-75
2023/04/13 03:04:05;;;;;;;1.02;0.85;;;7.10;99.90;;;;;;5059877;28;20195;-75
2023/04/13 03:06:31;;;;;;;0.75;0.75;;;7.10;99.90;;;;;;5051113;28;20180;-74
2023/04/13 03:08:58;;;;;;;0.45;0.45;;;7.10;99.90;;;;;;5047757;28;20192;-75
2023/04/13 03:11:25;;;;;;;0.60;0.60;;;7.00;99.90;;;;;;5038270;28;20687;-75
2023/04/13 03:13:53;;;;;;;0.60;0.60;;;7.10;99.90;;;;;;5047405;28;20208;-75
2023/04/13 03:16:19;;;;;;;1.20;0.60;;;7.00;99.90;;;;;;5050921;28;20566;-75
2023/04/13 03:18:45;;;;;;;0.75;0.73;;;7.00;99.90;;;;;;5053602;28;20176;-75
2023/04/13 03:21:11;;;;;;;0.60;0.60;;;7.00;99.90;;;;;;5052716;28;20203;-75
2023/04/13 03:23:37;;;;;;;0.38;0.38;;;7.00;99.90;;;;;;5046675;28;20200;-75
2023/04/13 03:26:03;;;;;;;0.77;0.77;;;6.90;99.90;;;;;;5056657;28;20559;-75
2023/04/13 03:28:28;;;;;;;0.88;0.88;;;6.90;99.90;;;;;;5046738;28;20561;-74
2023/04/13 03:30:55;;;;;;;0.50;0.50;;;6.90;99.90;;;;;;5048051;28;20651;-74
2023/04/13 03:33:20;;;;;;;0.82;0.70;;;6.90;99.90;;;;;;5032612;28;20199;-75
2023/04/13 03:35:46;;;;;;;0.40;0.40;;;6.90;99.90;;;;;;5052654;28;20184;-75
2023/04/13 03:38:12;;;;;;;0.50;0.50;;;6.90;99.90;;;;;;5049721;28;20199;-75
2023/04/13 03:40:37;;;;;;;0.63;0.60;;;6.80;99.90;;;;;;5044839;28;20195;-74
2023/04/13 03:43:03;;;;;;;0.60;0.60;;;6.80;99.90;;;;;;5051398;28;20233;-75
2023/04/13 03:45:29;;;;;;;0.77;0.70;;;6.80;99.90;;;;;;5035275;28;20213;-75
2023/04/13 03:47:54;;;;;;;0.80;0.80;;;6.80;99.90;;;;;;5056116;28;20266;-75
2023/04/13 03:50:20;;;;;;;0.80;0.55;;;6.80;99.90;;;;;;5048837;28;20172;-75
2023/04/13 03:52:46;;;;;;;0.40;0.40;;;6.80;99.90;;;;;;5055370;28;20223;-75
2023/04/13 03:55:12;;;;;;;0.60;0.60;;;6.80;99.90;;;;;;5050317;28;20227;-75
2023/04/13 03:57:38;;;;;;;1.05;0.65;;;6.70;99.90;;;;;;5046265;28;20181;-75
2023/04/13 04:00:06;;;;;;;0.40;0.40;;;6.70;99.90;;;;;;5046944;28;20172;-75
2023/04/13 04:02:31;;;;;;;0.70;0.70;;;6.70;99.90;;;;;;5047180;28;20171;-75
2023/04/13 04:04:58;;;;;;;0.70;0.70;;;6.70;99.90;;;;;;5046401;28;20219;-75
2023/04/13 04:07:24;;;;;;;0.40;0.40;;;6.70;99.90;;;;;;5051538;28;20175;-76
2023/04/13 04:09:50;;;;;;;0.95;0.70;;;6.70;99.90;;;;;;5050244;28;20659;-75
2023/04/13 04:12:15;;;;;;;1.17;0.73;;;6.70;99.90;;;;;;5050423;28;20204;-74
2023/04/13 04:14:41;;;;;;;0.82;0.82;;;6.60;99.90;;;;;;5045189;28;20196;-75
2023/04/13 04:17:06;;;;;;;0.52;0.52;;;6.60;99.90;;;;;;5053569;28;20185;-75
2023/04/13 04:19:32;;;;;;;0.70;0.70;;;6.60;99.90;;;;;;5046668;28;20977;-75
2023/04/13 04:22:04;;;;;;;0.75;0.75;;;6.50;99.90;;;;;;5050074;28;20270;-74
2023/04/13 04:24:30;;;;;;;0.90;0.90;;;6.60;99.90;;;;;;5044630;28;20679;-74
2023/04/13 04:26:57;;;;;;;0.80;0.80;;;6.60;99.90;;;;;;5051383;28;20195;-75
2023/04/13 04:29:33;;;;;;;0.80;0.80;;;6.50;99.90;;;;;;5045858;28;20255;-76
2023/04/13 04:32:03;;;;;;;1.50;0.90;;;6.50;99.90;;;;;;5047644;28;20622;-77
2023/04/13 04:34:29;;;;;;;0.50;0.50;;;6.40;99.90;;;;;;5024731;28;20219;-74
2023/04/13 04:36:55;;;;;;;0.70;0.70;;;6.40;99.90;;;;;;5028975;28;20223;-75
2023/04/13 04:39:21;;;;;;;0.90;0.90;;;6.50;99.90;;;;;;5045219;28;20183;-74
2023/04/13 04:41:48;;;;;;;0.80;0.80;;;6.60;99.90;;;;;;5051550;28;20191;-76
2023/04/13 04:44:15;;;;;;;0.73;0.73;;;6.60;99.90;;;;;;5045363;28;20253;-76
2023/04/13 04:46:42;;;;;;;0.80;0.80;;;6.60;99.90;;;;;;5050581;28;20184;-76
2023/04/13 04:49:08;;;;;;;0.88;0.88;;;6.60;99.90;;;;;;5048920;28;20172;-75
2023/04/13 04:51:35;;;;;;;1.60;0.73;;;6.70;99.90;;;;;;5050356;28;20693;-75
2023/04/13 04:54:02;;;;;;;0.82;0.82;;;6.70;99.90;;;;;;5044453;28;20285;-76
2023/04/13 04:56:28;;;;;;;1.10;1.10;;;6.70;99.90;;;;;;5049689;28;20331;-76
2023/04/13 04:58:54;;;;;;;0.82;0.82;;;6.70;99.90;;;;;;5056469;28;20258;-75
2023/04/13 05:01:25;;;;;;;1.00;1.00;;;6.70;99.90;;;;;;5051569;28;20259;-75
2023/04/13 05:03:54;;;;;;;1.25;1.08;;;6.70;99.90;;;;;;5050890;28;20257;-76
2023/04/13 05:06:19;;;;;;;1.10;1.10;;;6.70;99.90;;;;;;5053053;28;20183;-75
2023/04/13 05:08:45;;;;;;;0.75;0.75;;;6.80;99.90;;;;;;5050102;28;20613;-75
2023/04/13 05:11:10;;;;;;;1.15;1.15;;;6.90;99.90;;;;;;5039352;28;20190;-75
2023/04/13 05:13:36;;;;;;;1.10;1.10;;;7.10;99.90;;;;;;5044354;28;20204;-76
2023/04/13 05:16:04;;;;;;;1.10;1.10;;;7.20;99.90;;;;;;5050648;28;20183;-76
2023/04/13 05:18:31;;;;;;;1.27;1.17;;;7.20;99.90;;;;;;5041639;28;20670;-77
2023/04/13 05:20:57;;;;;;;1.20;1.20;;;7.20;99.90;;;;;;5044837;28;20214;-76
2023/04/13 05:23:23;;;;;;;1.85;1.20;;;7.30;99.90;;;;;;5045889;28;20719;-74
2023/04/13 05:25:49;;;;;;;1.00;1.00;;;7.30;99.90;;;;;;5047229;28;20190;-78
2023/04/13 05:28:14;;;;;;;1.10;1.10;;;7.30;99.90;;;;;;5045066;28;20172;-76
2023/04/13 05:30:40;;;;;;;1.40;1.40;;;7.30;99.90;;;;;;5048202;28;20218;-76
2023/04/13 05:33:07;;;;;;;1.20;1.10;;;7.40;99.90;;;;;;5045209;28;20683;-76
2023/04/13 05:35:33;;;;;;;0.95;0.95;;;7.40;99.90;;;;;;5030372;28;20215;-75
2023/04/13 05:37:59;;;;;;;0.77;0.77;;;7.60;99.90;;;;;;5041448;28;20195;-75
2023/04/13 05:40:25;;;;;;;2.58;1.17;;;7.60;99.90;;;;;;5048115;28;20176;-75
2023/04/13 05:42:50;;;;;;;1.17;1.17;;;7.60;99.90;;;;;;5044940;28;20200;-80
2023/04/13 05:45:16;;;;;;;0.95;0.95;;;7.60;99.90;;;;;;5049808;28;20704;-80
2023/04/13 05:47:43;;;;;;;0.70;0.70;;;7.50;99.90;;;;;;5048147;28;20477;-77
2023/04/13 05:50:09;;;;;;;0.93;0.93;;;7.50;99.90;;;;;;5052265;28;20536;-78
2023/04/13 05:52:35;;;;;;;1.05;1.05;;;7.60;99.90;;;;;;5049229;28;20199;-74
2023/04/13 05:55:01;;;;;;;1.50;1.45;;;7.60;99.90;;;;;;5049837;28;20183;-75
2023/04/13 05:57:26;;;;;;;1.08;1.08;;;7.60;99.90;;;;;;5033258;28;20640;-76
2023/04/13 05:59:53;;;;;;;1.42;1.10;;;7.50;99.90;;;;;;5045028;28;20222;-75
2023/04/13 06:02:19;;;;;;;1.15;1.15;;;7.50;99.90;;;;;;5048356;28;20553;-75
2023/04/13 06:04:45;;;;;;;1.63;1.17;;;7.50;99.90;;;;;;5043398;28;20283;-75
2023/04/13 06:07:15;;;;;;;1.10;1.10;;;7.50;99.90;;;;;;5047046;28;20271;-80
2023/04/13 06:09:41;;;;;;;1.05;1.02;;;7.50;99.90;;;;;;5040410;28;20187;-74
2023/04/13 06:12:06;;;;;;;1.95;1.20;;;7.60;99.90;;;;;;5048013;28;20656;-75
2023/04/13 06:14:33;;;;;;;1.10;1.10;;;7.70;99.90;;;;;;5043967;28;20668;-76
2023/04/13 06:16:59;;;;;;;2.15;1.55;;;7.70;99.90;;;;;;5047232;28;20185;-79
2023/04/13 06:19:25;;;;;;;1.70;1.00;;;7.70;99.90;;;;;;5050119;28;20176;-75
2023/04/13 06:21:51;;;;;;;1.20;1.10;;;7.90;99.90;;;;;;5042739;28;20253;-77
2023/04/13 06:24:17;;;;;;;0.63;0.63;;;8.00;99.90;;;;;;5049734;28;20565;-77
2023/04/13 06:26:42;;;;;;;1.20;1.10;;;8.10;99.90;;;;;;5036314;28;20176;-77
2023/04/13 06:29:08;;;;;;;0.95;0.95;;;8.30;99.90;;;;;;5048278;28;20196;-76
2023/04/13 06:31:34;;;;;;;1.52;1.42;;;8.20;99.90;;;;;;5043579;28;20195;-75
2023/04/13 06:34:01;;;;;;;2.00;1.00;;;8.40;99.90;;;;;;5046625;28;20231;-76
2023/04/13 06:36:27;;;;;;;0.80;0.80;;;8.50;99.90;;;;;;5046853;28;20514;-75
2023/04/13 06:38:53;;;;;;;0.68;0.68;;;8.40;99.90;;;;;;5051057;28;20241;-75
2023/04/13 06:41:19;;;;;;;1.13;0.98;;;8.50;99.90;;;;;;5050163;28;20179;-76
2023/04/13 06:43:44;;;;;;;1.00;1.00;;;8.60;99.90;;;;;;5052681;28;20206;-75
2023/04/13 06:46:11;;;;;;;1.25;0.90;;;8.70;99.90;;;;;;5045294;28;20267;-75
2023/04/13 06:48:36;;;;;;;1.80;0.90;;;9.10;99.90;;;;;;5048781;28;20175;-76
2023/04/13 06:51:02;;;;;;;0.70;0.70;;;9.50;99.90;;;;;;5047371;28;20192;-75
2023/04/13 06:53:27;;;;;;;0.90;0.90;;;9.80;99.90;;;;;;5042228;28;20608;-75
2023/04/13 06:55:53;;;;;;;1.85;0.98;;;9.70;99.90;;;;;;5043633;28;20188;-76
2023/04/13 06:58:20;;;;;;;0.75;0.75;;;9.70;99.90;;;;;;5051487;28;20176;-76
2023/04/13 07:00:45;;;;;;;1.13;1.13;;;9.70;99.90;;;;;;5050380;28;20278;-76
2023/04/13 07:03:11;;;;;;;0.82;0.82;;;9.90;99.90;;;;;;5047998;28;20613;-75
2023/04/13 07:05:37;;;;;;;0.73;0.70;;;9.90;99.90;;;;;;5044623;28;20199;-76
2023/04/13 07:08:04;;;;;;;1.83;0.95;;;9.90;99.90;;;;;;5048629;28;20188;-77
2023/04/13 07:10:30;;;;;;;1.40;0.70;;;9.90;99.90;;;;;;5035517;28;20191;-77
2023/04/13 07:12:55;;;;;;;1.75;0.82;;;9.90;99.90;;;;;;5049098;28;20207;-77
2023/04/13 07:15:21;;;;;;;0.50;0.50;;;9.90;99.90;;;;;;5052681;28;20325;-77
2023/04/13 07:17:48;;;;;;;1.08;0.70;;;9.90;99.90;;;;;;5050389;28;20184;-76
2023/04/13 07:20:14;;;;;;;0.88;0.88;;;9.80;99.90;;;;;;5055693;28;20195;-77
2023/04/13 07:22:40;;;;;;;0.75;0.75;;;9.80;99.90;;;;;;5052217;28;20274;-75
2023/04/13 07:25:06;;;;;;;1.02;1.02;;;9.80;99.90;;;;;;5047700;28;20333;-76
2023/04/13 07:27:32;;;;;;;0.57;0.57;;;9.80;99.90;;;;;;5049088;28;20218;-75
2023/04/13 07:29:59;;;;;;;1.30;0.63;;;9.60;99.90;;;;;;5040328;28;20184;-75
2023/04/13 07:32:26;;;;;;;1.00;0.90;;;9.70;99.90;;;;;;5053780;28;20234;-77
2023/04/13 07:34:52;;;;;;;0.40;0.40;;;9.90;99.90;;;;;;5049761;28;20208;-76
2023/04/13 07:37:17;;;;;;;0.85;0.85;;;10.20;99.90;;;;;;5036294;28;20179;-76
2023/04/13 07:39:43;;;;;;;1.00;0.90;;;10.30;99.90;;;;;;5046174;28;20287;-75
2023/04/13 07:42:09;;;;;;;0.60;0.60;;;10.40;99.90;;;;;;5053193;28;20176;-75
2023/04/13 07:44:34;;;;;;;0.80;0.80;;;10.50;99.90;;;;;;5051600;28;20203;-75
2023/04/13 07:47:00;;;;;;;1.35;0.80;;;10.60;99.90;;;;;;5047842;28;20184;-74
2023/04/13 07:49:26;;;;;;;1.48;1.17;;;10.50;99.90;;;;;;5045901;28;20194;-76
2023/04/13 07:51:52;;;;;;;1.02;1.02;;;10.30;99.90;;;;;;5049453;28;20741;-75
2023/04/13 07:54:18;;;;;;;1.00;0.98;;;10.20;99.90;;;;;;5051049;28;20277;-75
2023/04/13 07:56:44;;;;;;;1.17;1.00;;;10.20;99.90;;;;;;5046978;28;20402;-75
2023/04/13 07:59:10;;;;;;;2.63;1.15;;;10.30;99.90;;;;;;5029964;28;20562;-76
2023/04/13 08:01:35;;;;;;;0.85;0.85;;;10.60;99.90;;;;;;5051323;28;20172;-75
2023/04/13 08:04:01;;;;;;;0.90;0.90;;;11.00;99.90;;;;;;5047828;28;20542;-75
2023/04/13 08:06:27;;;;;;;1.88;1.40;;;11.40;99.90;;;;;;5053443;28;20175;-79
2023/04/13 08:08:53;;;;;;;0.85;0.85;;;11.80;99.90;;;;;;5053410;28;20257;-80
2023/04/13 08:11:19;;;;;;;0.80;0.80;;;11.80;99.90;;;;;;5058083;28;20195;-81
2023/04/13 08:13:44;;;;;;;1.33;0.80;;;11.50;99.90;;;;;;5039420;28;20218;-80
2023/04/13 08:16:11;;;;;;;1.15;1.05;;;11.60;99.90;;;;;;5033433;28;20179;-76
2023/04/13 08:18:36;;;;;;;0.77;0.77;;;11.60;99.90;;;;;;5043364;28;20647;-76
2023/04/13 08:21:10;;;;;;;0.70;0.70;;;11.60;99.90;;;;;;5029803;28;20192;-78
2023/04/13 08:23:38;;;;;;;2.22;1.20;;;11.90;99.90;;;;;;5042772;28;20207;-78
2023/04/13 08:26:04;;;;;;;1.17;1.08;;;12.20;99.90;;;;;;5048008;28;20191;-78
2023/04/13 08:28:31;;;;;;;0.95;0.85;;;12.50;99.90;;;;;;5045529;28;20172;-79
2023/04/13 08:30:56;;;;;;;1.25;1.00;;;12.60;99.90;;;;;;5045710;28;20606;-76
2023/04/13 08:33:22;;;;;;;1.00;0.80;;;12.50;99.90;;;;;;5048922;28;20210;-76
2023/04/13 08:35:47;;;;;;;0.40;0.40;;;12.40;99.90;;;;;;5052581;28;20183;-76
2023/04/13 08:38:13;;;;;;;0.88;0.65;;;12.30;99.90;;;;;;5034296;28;20662;-75
2023/04/13 08:40:40;;;;;;;3.00;0.88;;;12.30;99.90;;;;;;5043541;28;20667;-75
2023/04/13 08:43:06;;;;;;;0.90;0.68;;;12.40;99.90;;;;;;5051022;28;20186;-76
2023/04/13 08:45:32;;;;;;;0.63;0.63;;;12.30;99.80;;;;;;5050377;28;20538;-76
2023/04/13 08:48:00;;;;;;;0.90;0.90;;;12.20;97.20;;;;;;5030226;28;20230;-77
2023/04/13 08:50:26;;;;;;;1.10;0.98;;;12.00;97.40;;;;;;5041831;28;20610;-76
2023/04/13 08:52:53;;;;;;;1.48;0.60;;;12.00;98.80;;;;;;5041167;28;20718;-75
2023/04/13 08:55:18;;;;;;;2.47;0.88;;;12.10;99.70;;;;;;5045526;28;20275;-76
2023/04/13 08:57:47;;;;;;;0.50;0.50;;;12.20;95.10;;;;;;5049557;28;20186;-75
2023/04/13 09:00:16;;;;;;;1.23;0.65;;;12.30;94.50;;;;;;5046370;28;20246;-75
2023/04/13 09:02:53;;;;;;;0.90;0.80;;;12.20;94.60;;;;;;5042864;28;20172;-77
2023/04/13 09:05:20;;;;;;;3.15;0.82;;;12.40;95.50;;;;;;5042491;28;20606;-75
2023/04/13 09:07:52;;;;;;;1.02;0.90;;;12.60;94.00;;;;;;5042541;28;20196;-75
2023/04/13 09:10:22;;;;;;;0.65;0.38;;;13.10;93.70;;;;;;5044519;28;20188;-75
2023/04/13 09:12:50;;;;;;;1.67;1.00;;;13.70;91.50;;;;;;5047701;28;20238;-76
2023/04/13 09:15:16;;;;;;;0.60;0.60;;;15.50;90.50;;;;;;5045666;28;20200;-79
2023/04/13 09:17:42;;;;;;;0.57;0.52;;;17.40;79.50;;;;;;5051165;28;20246;-78
2023/04/13 09:20:12;;;;;;;0.68;0.68;;;19.20;71.10;;;;;;5052514;28;20549;-78
2023/04/13 09:22:38;;;;;;;0.50;0.50;;;19.10;64.90;;;;;;5046411;28;20683;-79
2023/04/13 09:25:06;;;;;;;0.77;0.50;;;18.80;64.30;;;;;;5038349;28;20200;-76
2023/04/13 09:27:34;;;;;;;0.63;0.63;;;19.10;64.30;;;;;;5046912;28;20175;-80
2023/04/13 09:30:01;;;;;;;0.77;0.47;;;19.80;60.90;;;;;;5046232;28;20207;-78
2023/04/13 09:32:27;;;;;;;0.50;0.50;;;19.00;60.40;;;;;;5047883;28;20199;-76
2023/04/13 09:35:04;;;;;;;0.57;0.57;;;18.50;59.30;;;;;;5041330;28;20619;-78
2023/04/13 09:37:35;;;;;;;0.77;0.73;;;17.70;61.40;;;;;;5046145;28;20171;-77
2023/04/13 09:40:12;;;;;;;0.68;0.68;;;16.90;64.30;;;;;;5044496;28;20172;-77
2023/04/13 09:42:52;;;;;;;0.82;0.82;;;17.00;65.40;;;;;;5037162;28;20181;-77
2023/04/13 09:45:18;;;;;;;0.80;0.63;;;16.60;66.90;;;;;;5042544;28;20207;-77
2023/04/13 09:47:44;;;;;;;0.80;0.80;;;16.50;67.80;;;;;;5042298;28;20313;-77
2023/04/13 09:50:37;;;;;;;;;;;;;;;;;;;;;
2023/04/13 09:53:05;;;;;;;0.40;0.40;;;19.20;57.40;;;;;;5041471;28;20573;-76
2023/04/13 09:55:32;;;;;;;0.50;0.50;;;22.20;52.50;;;;;;5049702;28;20208;-76
2023/04/13 09:58:12;;;;;;;0.68;0.47;;;24.00;50.00;;;;;;5044267;28;20599;-76
2023/04/13 10:00:42;;;;;;;1.02;0.47;;;24.80;47.90;;;;;;5050116;28;20179;-78
2023/04/13 10:07:29;;;;;;;1.25;0.63;;;26.60;45.30;;;;;;5046827;28;20179;-79
2023/04/13 10:09:57;;;;;;;1.10;0.55;;;27.60;42.70;;;;;;5071396;28;20253;-79
2023/04/13 10:12:27;;;;;;;1.13;0.70;;;25.30;45.30;;;;;;5060697;28;20261;-78
2023/04/13 10:15:06;;;;;;;1.35;0.90;;;21.60;46.50;;;;;;5032776;28;20584;-75
2023/04/13 10:18:13;;;;;;;0.47;0.47;;;18.90;51.10;;;;;;5059818;28;20204;-79
2023/04/13 10:20:40;;;;;;;0.47;0.47;;;17.90;53.50;;;;;;5051868;28;20188;-78
2023/04/13 10:23:06;;;;;;;0.40;0.40;;;18.40;53.60;;;;;;5032823;28;20188;-76
2023/04/13 10:25:34;;;;;;;1.15;1.05;;;19.30;52.30;;;;;;5051472;28;20215;-77
2023/04/13 10:28:03;;;;;;;1.67;0.60;;;19.80;52.30;;;;;;5035655;28;20200;-76
2023/04/13 10:30:29;;;;;;;0.82;0.82;;;18.80;54.50;;;;;;5046763;28;20225;-76
2023/04/13 10:33:08;;;;;;;0.40;0.40;;;18.30;55.80;;;;;;5054307;28;20675;-76
2023/04/13 10:35:37;;;;;;;2.03;0.80;;;17.20;53.10;;;;;;5052921;28;20195;-77
2023/04/13 10:38:04;;;;;;;0.82;0.60;;;16.60;55.40;;;;;;5051405;28;20196;-77
2023/04/13 10:40:50;;;;;;;0.43;0.43;;;16.30;57.60;;;;;;5035906;28;20175;-77
2023/04/13 10:43:41;;;;;;;1.02;0.73;;;16.50;56.30;;;;;;5047009;28;20626;-77
2023/04/13 10:46:08;;;;;;;2.47;0.80;;;16.90;56.70;;;;;;5049658;28;20189;-77
2023/04/13 10:48:35;;;;;;;0.52;0.52;;;17.40;55.50;;;;;;5047186;28;20222;-77
2023/04/13 10:51:01;;;;;;;0.98;0.70;;;17.80;55.30;;;;;;5053205;28;20178;-77
2023/04/13 10:53:34;;;;;;;2.28;0.73;;;17.20;55.70;;;;;;5055789;28;20294;-78
2023/04/13 10:56:18;;;;;;;0.95;0.70;;;17.00;55.10;;;;;;5042480;28;20179;-77
2023/04/13 10:58:51;;;;;;;2.25;0.75;;;16.80;56.00;;;;;;5045630;28;20194;-78
2023/04/13 11:01:17;;;;;;;1.55;0.98;;;16.00;58.60;;;;;;5035167;28;20735;-78
2023/04/13 11:03:43;;;;;;;0.73;0.73;;;16.30;57.20;;;;;;5045383;28;20232;-78
2023/04/13 11:06:10;;;;;;;0.73;0.70;;;16.60;55.90;;;;;;5051412;28;20180;-78
2023/04/13 11:08:38;;;;;;;2.85;0.98;;;17.60;55.10;;;;;;5034762;28;20337;-77
2023/04/13 11:11:04;;;;;;;1.15;0.77;;;18.40;53.90;;;;;;5036759;28;20194;-77
2023/04/13 11:13:31;;;;;;;0.82;0.65;;;18.20;54.50;;;;;;5051820;28;20333;-76
2023/04/13 11:16:04;;;;;;;0.70;0.70;;;20.30;52.40;;;;;;5051866;28;20180;-77
2023/04/13 11:18:31;;;;;;;1.70;0.98;;;23.00;50.00;;;;;;5048042;28;20275;-77
2023/04/13 11:20:56;;;;;;;2.22;1.00;;;23.70;48.40;;;;;;5031877;28;20667;-77
2023/04/13 11:23:23;;;;;;;2.00;0.80;;;24.30;46.70;;;;;;5051522;28;20271;-77
2023/04/13 11:25:59;;;;;;;1.00;0.80;;;23.80;46.60;;;;;;5048103;28;20184;-76
2023/04/13 11:28:40;;;;;;;1.88;1.10;;;24.90;45.60;;;;;;5052102;28;20179;-76
2023/04/13 11:31:17;;;;;;;0.70;0.70;;;24.00;44.60;;;;;;5037661;28;20239;-77
2023/04/13 11:33:53;;;;;;;1.42;0.93;;;23.50;46.80;;;;;;5041694;28;20238;-76
2023/04/13 11:36:37;;;;;;;2.30;1.00;;;24.50;46.10;;;;;;5036936;28;20173;-77
2023/04/13 11:39:06;;;;;;;1.48;1.20;;;24.00;46.70;;;;;;5049255;28;20168;-77
2023/04/13 11:41:37;;;;;;;1.45;0.90;;;24.20;46.00;;;;;;5051281;28;20203;-77
2023/04/13 11:44:03;;;;;;;2.13;1.13;;;23.20;45.10;;;;;;5049739;28;21332;-76
2023/04/13 11:46:29;;;;;;;4.88;0.93;;;21.50;46.30;;;;;;5052981;28;20192;-76
2023/04/13 11:48:57;;;;;;;3.00;1.50;;;19.90;48.50;;;;;;5046717;28;20190;-78
2023/04/13 11:51:24;;;;;;;1.95;1.40;;;17.80;53.60;;;;;;5048604;28;20603;-76
2023/04/13 11:53:50;;;;;;;1.42;0.75;;;17.90;53.60;;;;;;5032726;28;20257;-76
2023/04/13 11:56:17;;;;;;;3.58;1.52;;;18.40;52.70;;;;;;5059564;28;20684;-75
2023/04/13 11:58:42;;;;;;;2.60;1.17;;;18.10;52.30;;;;;;5045721;28;20210;-76
2023/04/13 12:01:09;;;;;;;1.70;0.90;;;17.10;54.70;;;;;;5045681;28;20208;-77
2023/04/13 12:03:35;;;;;;;2.63;1.20;;;16.80;56.20;;;;;;5048222;28;20208;-80
2023/04/13 12:06:01;;;;;;;1.45;1.13;;;17.10;55.20;;;;;;5051124;28;20271;-77
2023/04/13 12:08:28;;;;;;;1.52;1.08;;;16.90;55.30;;;;;;5047389;28;20176;-77
2023/04/13 12:10:59;;;;;;;1.02;0.80;;;16.10;56.40;;;;;;5040794;28;20208;-76
2023/04/13 12:13:26;;;;;;;2.63;1.30;;;16.20;57.50;;;;;;5052771;28;20670;-77
2023/04/13 12:15:52;;;;;;;1.48;1.10;;;16.00;56.40;;;;;;5045934;28;20188;-76
2023/04/13 12:18:20;;;;;;;1.40;1.05;;;16.50;56.60;;;;;;5029829;28;20180;-76
2023/04/13 12:20:47;;;;;;;1.08;1.05;;;17.00;56.30;;;;;;5044532;28;20202;-76
2023/04/13 12:23:21;;;;;;;2.20;1.40;;;17.10;56.10;;;;;;5049118;28;20691;-76
2023/04/13 12:25:58;;;;;;;1.98;1.08;;;16.90;55.10;;;;;;5047687;28;20194;-75
2023/04/13 12:28:34;;;;;;;2.40;1.05;;;16.70;55.80;;;;;;5047256;28;20401;-75
2023/04/13 12:31:04;;;;;;;1.48;1.02;;;16.10;56.50;;;;;;5050693;28;20219;-77
2023/04/13 12:33:30;;;;;;;2.35;1.10;;;15.90;58.00;;;;;;5041739;28;20286;-76
2023/04/13 12:35:56;;;;;;;1.85;1.55;;;15.90;58.00;;;;;;5049451;28;20217;-76
2023/04/13 12:38:26;;;;;;;1.35;1.02;;;15.70;59.10;;;;;;5047089;28;20208;-76
2023/04/13 12:40:59;;;;;;;2.55;1.50;;;16.00;58.70;;;;;;5043296;28;20185;-76
2023/04/13 12:43:25;;;;;;;3.13;1.38;;;16.80;58.00;;;;;;5049862;28;20249;-76
2023/04/13 12:45:51;;;;;;;1.52;1.20;;;16.50;57.80;;;;;;5043682;28;20196;-75
2023/04/13 12:48:17;;;;;;;2.03;1.30;;;16.40;57.70;;;;;;5047371;28;20180;-77
2023/04/13 12:50:43;;;;;;;2.30;1.13;;;16.50;58.70;;;;;;5047756;28;20667;-76
2023/04/13 12:53:10;;;;;;;3.28;1.10;;;16.60;58.30;;;;;;5051391;28;20281;-77
2023/04/13 12:55:36;;;;;;;1.13;1.02;;;15.70;59.70;;;;;;5046169;28;20226;-78
2023/04/13 12:58:02;;;;;;;2.70;1.15;;;15.50;58.50;;;;;;5042349;28;20199;-76
2023/04/13 13:00:28;;;;;;;2.90;1.10;;;15.10;59.70;;;;;;5047731;28;20179;-76